createdAt,value
2022-08-23T00:02:22.967Z,4.45
2022-08-23T00:05:03.500Z,4.93
2022-08-23T00:07:42.233Z,5.07
2022-08-23T00:10:12.207Z,4.50
2022-08-23T00:12:40.465Z,4.38
2022-08-23T00:15:10.308Z,4.97
2022-08-23T00:17:37.754Z,4.45
2022-08-23T00:20:10.024Z,4.82
2022-08-23T00:22:40.220Z,4.20
2022-08-23T00:25:09.994Z,4.57
2022-08-23T00:30:07.361Z,4.85
2022-08-23T00:32:37.823Z,4.75
2022-08-23T00:37:34.014Z,5.10
2022-08-23T00:40:02.115Z,4.68
2022-08-23T00:42:56.994Z,4.95
2022-08-23T00:46:19.213Z,4.90
2022-08-23T00:48:46.755Z,5.03
2022-08-23T00:51:30.588Z,5.43
2022-08-23T00:54:00.437Z,5.13
2022-08-23T00:56:31.358Z,4.95
2022-08-23T00:58:58.634Z,5.30
2022-08-23T01:01:26.416Z,5.70
2022-08-23T01:04:04.879Z,4.97
2022-08-23T01:06:42.503Z,5.20
2022-08-23T01:09:13.877Z,5.65
2022-08-23T01:11:56.567Z,5.65
2022-08-23T01:14:43.810Z,6.28
2022-08-23T01:17:22.754Z,6.28
2022-08-23T01:19:57.793Z,4.50
2022-08-23T01:22:35.281Z,4.70
2022-08-23T01:25:08.453Z,4.40
2022-08-23T01:27:42.412Z,4.75
2022-08-23T01:30:16.227Z,4.50
2022-08-23T01:32:58.415Z,4.53
2022-08-23T01:35:43.405Z,4.28
2022-08-23T01:38:12.313Z,4.35
2022-08-23T01:40:40.652Z,4.10
2022-08-23T01:43:09.151Z,4.20
2022-08-23T01:45:39.833Z,4.30
2022-08-23T01:48:08.842Z,4.20
2022-08-23T01:53:23.936Z,4.97
2022-08-23T01:55:51.115Z,4.60
2022-08-23T01:58:20.262Z,4.60
2022-08-23T02:00:47.535Z,4.50
2022-08-23T02:03:16.013Z,5.00
2022-08-23T02:05:43.360Z,4.68
2022-08-23T02:08:30.487Z,5.15
2022-08-23T02:10:59.446Z,4.60
2022-08-23T02:13:27.233Z,5.05
2022-08-23T02:15:55.301Z,4.53
2022-08-23T02:18:23.685Z,4.97
2022-08-23T02:20:52.726Z,4.40
2022-08-23T02:23:21.171Z,4.65
2022-08-23T02:25:48.435Z,4.20
2022-08-23T02:28:15.487Z,4.20
2022-08-23T02:30:45.425Z,4.00
2022-08-23T02:33:14.900Z,5.05
2022-08-23T02:35:44.330Z,4.13
2022-08-23T02:38:13.047Z,4.35
2022-08-23T02:40:41.546Z,4.38
2022-08-23T02:43:08.784Z,4.38
2022-08-23T02:45:37.443Z,4.20
2022-08-23T02:48:05.175Z,4.97
2022-08-23T02:50:41.104Z,4.85
2022-08-23T02:53:08.658Z,4.72
2022-08-23T02:55:35.792Z,4.72
2022-08-23T02:58:02.885Z,4.50
2022-08-23T03:00:30.059Z,4.78
2022-08-23T03:02:57.478Z,4.72
2022-08-23T03:05:25.233Z,4.82
2022-08-23T03:07:52.298Z,5.97
2022-08-23T03:10:19.283Z,4.80
2022-08-23T03:12:52.770Z,5.05
2022-08-23T03:15:19.892Z,5.38
2022-08-23T03:17:47.019Z,5.53
2022-08-23T03:20:14.208Z,5.03
2022-08-23T03:22:48.382Z,5.15
2022-08-23T03:25:22.823Z,6.25
2022-08-23T03:28:08.970Z,5.30
2022-08-23T03:30:40.465Z,5.72
2022-08-23T03:33:08.816Z,5.63
2022-08-23T03:35:35.964Z,5.95
2022-08-23T03:38:04.224Z,5.70
2022-08-23T03:40:31.319Z,5.65
2022-08-23T03:42:58.316Z,5.68
2022-08-23T03:45:28.316Z,5.28
2022-08-23T03:47:55.908Z,5.38
2022-08-23T03:50:23.934Z,5.57
2022-08-23T03:52:51.802Z,5.10
2022-08-23T03:55:18.911Z,4.78
2022-08-23T03:57:49.259Z,6.90
2022-08-23T04:00:20.458Z,5.30
2022-08-23T04:02:50.076Z,5.35
2022-08-23T04:05:17.530Z,5.35
2022-08-23T04:07:50.573Z,6.15
2022-08-23T04:12:50.168Z,5.53
2022-08-23T04:15:19.790Z,5.43
2022-08-23T04:17:48.129Z,5.90
2022-08-23T04:20:16.913Z,5.65
2022-08-23T04:23:04.173Z,5.45
2022-08-23T04:25:36.806Z,5.80
2022-08-23T04:28:05.878Z,5.50
2022-08-23T04:30:34.135Z,6.35
2022-08-23T04:33:03.140Z,5.60
2022-08-23T04:35:39.094Z,5.50
2022-08-23T04:38:24.270Z,5.22
2022-08-23T04:41:13.393Z,5.60
2022-08-23T04:43:42.234Z,5.20
2022-08-23T04:46:15.547Z,4.95
2022-08-23T04:48:45.957Z,4.90
2022-08-23T04:51:13.397Z,4.93
2022-08-23T04:53:41.708Z,4.68
2022-08-23T04:56:38.870Z,5.13
2022-08-23T04:59:07.867Z,4.97
2022-08-23T05:01:42.954Z,4.47
2022-08-23T05:04:10.904Z,5.18
2022-08-23T05:06:40.063Z,4.53
2022-08-23T05:09:07.045Z,4.22
2022-08-23T05:11:35.698Z,4.63
2022-08-23T05:14:03.020Z,4.57
2022-08-23T05:16:30.614Z,4.32
2022-08-23T05:19:03.116Z,4.35
2022-08-23T05:21:32.580Z,4.18
2022-08-23T05:24:00.696Z,3.97
2022-08-23T05:26:30.943Z,6.60
2022-08-23T05:28:57.958Z,4.63
2022-08-23T05:31:30.668Z,4.03
2022-08-23T05:34:00.987Z,4.38
2022-08-23T05:36:47.632Z,4.20
2022-08-23T05:39:33.001Z,4.10
2022-08-23T05:42:11.527Z,4.05
2022-08-23T05:44:38.574Z,3.97
2022-08-23T05:47:12.278Z,4.53
2022-08-23T05:50:15.722Z,4.65
2022-08-23T05:52:42.944Z,4.40
2022-08-23T05:55:10.911Z,4.13
2022-08-23T06:00:14.381Z,6.30
2022-08-23T06:02:49.382Z,4.63
2022-08-23T06:05:19.809Z,4.47
2022-08-23T06:07:49.559Z,4.97
2022-08-23T06:10:20.951Z,3.92
2022-08-23T06:13:03.638Z,4.43
2022-08-23T06:15:31.665Z,3.78
2022-08-23T06:17:59.767Z,5.18
2022-08-23T06:20:27.253Z,4.03
2022-08-23T06:23:00.270Z,3.90
2022-08-23T06:25:29.150Z,3.80
2022-08-23T06:28:07.599Z,5.07
2022-08-23T06:30:40.066Z,3.70
2022-08-23T06:33:21.165Z,4.25
2022-08-23T06:36:13.863Z,4.05
2022-08-23T06:39:14.141Z,4.20
2022-08-23T06:42:13.302Z,4.35
2022-08-23T06:44:50.996Z,4.22
2022-08-23T06:47:27.094Z,3.80
2022-08-23T06:49:57.858Z,3.65
2022-08-23T06:52:49.056Z,3.55
2022-08-23T06:55:36.634Z,4.63
2022-08-23T06:58:15.305Z,4.80
2022-08-23T07:01:35.068Z,5.30
2022-08-23T07:04:20.046Z,4.85
2022-08-23T07:07:11.337Z,4.50
2022-08-23T07:09:40.904Z,3.20
2022-08-23T07:12:08.450Z,3.72
2022-08-23T07:14:38.554Z,3.72
2022-08-23T07:17:05.780Z,4.18
2022-08-23T07:19:34.864Z,3.97
2022-08-23T07:22:04.337Z,3.60
2022-08-23T07:24:33.847Z,4.10
2022-08-23T07:27:07.320Z,3.28
2022-08-23T07:29:38.314Z,4.20
2022-08-23T07:32:06.202Z,3.45
2022-08-23T07:34:36.040Z,4.43
2022-08-23T07:37:04.416Z,3.33
2022-08-23T07:39:38.394Z,4.20
2022-08-23T07:42:22.697Z,3.80
2022-08-23T07:44:53.814Z,3.60
2022-08-23T07:47:23.085Z,3.35
2022-08-23T07:49:51.412Z,3.55
2022-08-23T07:52:18.759Z,4.15
2022-08-23T07:54:48.696Z,3.88
2022-08-23T07:57:42.214Z,3.85
2022-08-23T08:00:32.287Z,3.40
2022-08-23T08:03:14.093Z,3.38
2022-08-23T08:06:07.317Z,4.45
2022-08-23T08:08:34.591Z,3.25
2022-08-23T08:11:01.787Z,3.45
2022-08-23T08:13:29.729Z,2.90
2022-08-23T08:15:57.208Z,3.50
2022-08-23T08:18:27.459Z,4.15
2022-08-23T08:21:16.528Z,3.67
2022-08-23T08:24:00.830Z,4.03
2022-08-23T08:26:47.152Z,3.78
2022-08-23T08:29:14.916Z,4.28
2022-08-23T08:31:46.766Z,4.68
2022-08-23T08:34:14.330Z,3.90
2022-08-23T08:36:43.485Z,3.90
2022-08-23T08:39:24.075Z,3.20
2022-08-23T08:42:19.528Z,3.45
2022-08-23T08:44:58.225Z,3.53
2022-08-23T08:47:41.160Z,3.22
2022-08-23T08:50:16.398Z,3.40
2022-08-23T08:53:03.974Z,3.13
2022-08-23T08:56:12.799Z,3.30
2022-08-23T08:58:51.390Z,2.88
2022-08-23T09:01:21.928Z,3.25
2022-08-23T09:03:52.375Z,3.70
2022-08-23T09:06:28.529Z,3.58
2022-08-23T09:09:15.065Z,3.70
2022-08-23T09:11:58.722Z,3.90
2022-08-23T09:14:28.548Z,3.40
2022-08-23T09:17:05.845Z,3.47
2022-08-23T09:19:37.523Z,3.70
2022-08-23T09:22:13.655Z,4.10
2022-08-23T09:24:42.051Z,4.10
2022-08-23T09:27:22.596Z,3.67
2022-08-23T09:30:01.346Z,3.65
2022-08-23T09:32:34.242Z,3.20
2022-08-23T09:35:14.670Z,3.42
2022-08-23T09:37:57.899Z,3.28
2022-08-23T09:40:38.631Z,3.53
2022-08-23T09:43:14.762Z,3.22
2022-08-23T09:46:04.552Z,3.88
2022-08-23T09:48:44.304Z,2.88
2022-08-23T09:51:34.993Z,3.05
2022-08-23T09:54:23.326Z,2.50
2022-08-23T09:56:59.863Z,3.53
2022-08-23T09:59:27.462Z,3.33
2022-08-23T10:02:02.576Z,3.00
2022-08-23T10:04:37.416Z,3.00
2022-08-23T10:07:40.370Z,2.70
2022-08-23T10:10:17.835Z,2.75
2022-08-23T10:12:46.653Z,2.65
2022-08-23T10:15:15.708Z,2.95
2022-08-23T10:17:47.425Z,2.80
2022-08-23T10:20:29.362Z,2.72
2022-08-23T10:23:07.083Z,3.08
2022-08-23T10:25:55.247Z,2.63
2022-08-23T10:28:46.592Z,2.80
2022-08-23T10:31:35.881Z,3.28
2022-08-23T10:34:48.469Z,3.17
2022-08-23T10:38:02.743Z,2.70
2022-08-23T10:40:41.474Z,2.90
2022-08-23T10:43:26.197Z,2.80
2022-08-23T10:46:00.407Z,2.63
2022-08-23T10:48:43.986Z,3.03
2022-08-23T10:51:22.616Z,2.95
2022-08-23T10:56:24.456Z,2.83
2022-08-23T10:59:00.077Z,3.53
2022-08-23T11:01:53.072Z,3.38
2022-08-23T11:04:41.261Z,3.25
2022-08-23T11:07:34.385Z,4.00
2022-08-23T11:10:26.596Z,3.40
2022-08-23T11:13:01.743Z,3.10
2022-08-23T11:15:58.794Z,3.50
2022-08-23T11:18:36.135Z,2.83
2022-08-23T11:21:09.912Z,3.05
2022-08-23T11:23:58.616Z,3.15
2022-08-23T11:26:27.659Z,2.92
2022-08-23T11:29:10.851Z,3.30
2022-08-23T11:31:51.180Z,2.88
2022-08-23T11:34:29.654Z,2.83
2022-08-23T11:37:30.505Z,3.30
2022-08-23T11:40:09.486Z,2.95
2022-08-23T11:42:37.789Z,2.97
2022-08-23T11:45:28.741Z,3.03
2022-08-23T11:48:16.537Z,3.60
2022-08-23T11:51:11.921Z,3.13
2022-08-23T11:53:41.910Z,3.10
2022-08-23T11:56:16.383Z,2.83
2022-08-23T11:59:15.379Z,3.47
2022-08-23T12:01:44.978Z,2.70
2022-08-23T12:07:02.119Z,2.95
2022-08-23T12:09:29.446Z,3.05
2022-08-23T12:11:56.409Z,2.70
2022-08-23T12:14:32.244Z,2.80
2022-08-23T12:17:04.191Z,3.45
2022-08-23T12:19:40.551Z,2.70
2022-08-23T12:22:36.985Z,2.85
2022-08-23T12:25:08.209Z,3.10
2022-08-23T12:27:41.351Z,3.03
2022-08-23T12:30:11.101Z,3.13
2022-08-23T12:32:50.289Z,3.00
2022-08-23T12:35:30.403Z,3.00
2022-08-23T12:38:23.292Z,3.90
2022-08-23T12:40:54.618Z,3.10
2022-08-23T12:43:23.725Z,3.20
2022-08-23T12:45:56.931Z,3.38
2022-08-23T12:48:28.009Z,3.08
2022-08-23T12:50:57.074Z,2.40
2022-08-23T12:53:29.618Z,2.85
2022-08-23T12:56:04.702Z,3.40
2022-08-23T12:58:34.131Z,2.80
2022-08-23T13:03:39.806Z,2.80
2022-08-23T13:06:11.879Z,3.25
2022-08-23T13:08:42.926Z,2.97
2022-08-23T13:11:21.936Z,2.95
2022-08-23T13:13:49.419Z,2.72
2022-08-23T13:16:27.980Z,2.80
2022-08-23T13:19:10.342Z,3.43
2022-08-23T13:21:40.006Z,3.00
2022-08-23T13:24:38.376Z,3.17
2022-08-23T13:27:26.492Z,2.78
2022-08-23T13:29:57.667Z,3.22
2022-08-23T13:32:49.679Z,3.83
2022-08-23T13:35:45.643Z,3.33
2022-08-23T13:38:20.834Z,3.28
2022-08-23T13:40:59.547Z,3.17
2022-08-23T13:43:32.551Z,2.80
2022-08-23T13:46:32.425Z,3.35
2022-08-23T13:49:12.049Z,3.10
2022-08-23T13:54:10.924Z,3.05
2022-08-23T13:56:48.395Z,4.82
2022-08-23T13:59:31.267Z,3.15
2022-08-23T14:02:09.160Z,2.90
2022-08-23T14:04:36.342Z,3.15
2022-08-23T14:07:03.816Z,5.18
2022-08-23T14:09:30.933Z,3.38
2022-08-23T14:12:03.109Z,2.85
2022-08-23T14:14:33.402Z,3.17
2022-08-23T14:17:02.805Z,3.35
2022-08-23T14:22:19.434Z,2.95
2022-08-23T14:24:46.747Z,3.13
2022-08-23T14:27:14.735Z,3.30
2022-08-23T14:29:41.908Z,3.35
2022-08-23T14:32:08.944Z,3.78
2022-08-23T14:34:36.022Z,3.30
2022-08-23T14:39:50.423Z,3.13
2022-08-23T14:42:20.801Z,2.97
2022-08-23T14:44:48.362Z,3.05
2022-08-23T14:47:15.681Z,3.00
2022-08-23T14:49:42.853Z,3.58
2022-08-23T14:52:11.839Z,3.40
2022-08-23T14:54:39.168Z,2.60
2022-08-23T14:57:06.284Z,3.00
2022-08-23T14:59:33.411Z,3.22
2022-08-23T15:02:01.265Z,3.20
2022-08-23T15:04:34.731Z,3.10
2022-08-23T15:07:19.607Z,3.05
2022-08-23T15:09:54.608Z,3.53
2022-08-23T15:15:14.133Z,3.30
2022-08-23T15:17:51.936Z,3.30
2022-08-23T15:20:20.933Z,3.15
2022-08-23T15:22:55.403Z,3.08
2022-08-23T15:25:25.071Z,3.22
2022-08-23T15:27:52.968Z,3.30
2022-08-23T15:30:21.986Z,3.13
2022-08-23T15:32:52.147Z,2.92
2022-08-23T15:35:22.725Z,3.65
2022-08-23T15:37:50.478Z,3.75
2022-08-23T15:40:17.657Z,4.40
2022-08-23T15:42:44.752Z,3.33
2022-08-23T15:45:11.964Z,3.65
2022-08-23T15:48:07.199Z,3.03
2022-08-23T15:50:35.485Z,3.33
2022-08-23T15:53:02.853Z,3.55
2022-08-23T15:55:32.779Z,3.08
2022-08-23T15:58:00.389Z,4.30
2022-08-23T16:00:28.006Z,3.88
2022-08-23T16:03:19.198Z,3.40
2022-08-23T16:05:44.987Z,3.40
2022-08-23T16:10:44.733Z,2.90
2022-08-23T16:13:11.780Z,3.08
2022-08-23T16:15:40.084Z,3.00
2022-08-23T16:18:08.189Z,2.90
2022-08-23T16:20:35.356Z,2.67
2022-08-23T16:23:02.513Z,4.75
2022-08-23T16:25:29.821Z,2.83
2022-08-23T16:27:57.046Z,3.45
2022-08-23T16:30:24.462Z,2.67
2022-08-23T16:32:51.519Z,3.42
2022-08-23T16:35:18.634Z,3.05
2022-08-23T16:37:45.578Z,3.35
2022-08-23T16:40:13.198Z,2.85
2022-08-23T16:42:40.648Z,2.85
2022-08-23T16:45:08.800Z,5.57
2022-08-23T16:47:41.136Z,3.00
2022-08-23T16:50:09.578Z,3.20
2022-08-23T16:52:37.088Z,2.85
2022-08-23T16:55:07.242Z,3.13
2022-08-23T16:57:34.474Z,3.05
2022-08-23T17:00:02.280Z,3.17
2022-08-23T17:02:33.456Z,3.10
2022-08-23T17:05:02.437Z,2.53
2022-08-23T17:07:29.575Z,4.03
2022-08-23T17:09:56.800Z,2.72
2022-08-23T17:12:23.756Z,3.00
2022-08-23T17:14:51.531Z,3.10
2022-08-23T17:17:18.659Z,2.80
2022-08-23T17:19:45.846Z,3.00
2022-08-23T17:22:13.557Z,3.45
2022-08-23T17:24:40.907Z,3.08
2022-08-23T17:27:08.124Z,3.00
2022-08-23T17:29:37.632Z,2.83
2022-08-23T17:34:31.934Z,3.03
2022-08-23T17:37:00.108Z,3.08
2022-08-23T17:39:29.409Z,3.47
2022-08-23T17:41:58.041Z,3.35
2022-08-23T17:44:25.191Z,3.00
2022-08-23T17:46:53.188Z,3.17
2022-08-23T17:49:20.551Z,3.30
2022-08-23T17:51:47.670Z,3.17
2022-08-23T17:54:15.894Z,2.88
2022-08-23T17:56:49.936Z,3.28
2022-08-23T17:59:21.735Z,2.95
2022-08-23T18:01:48.982Z,3.72
2022-08-23T18:04:16.092Z,4.10
2022-08-23T18:06:43.170Z,3.38
2022-08-23T18:09:10.384Z,3.53
2022-08-23T18:11:37.737Z,3.45
2022-08-23T18:14:05.489Z,5.78
2022-08-23T18:16:35.641Z,3.42
2022-08-23T18:19:05.472Z,3.20
2022-08-23T18:24:00.440Z,6.28
2022-08-23T18:26:46.483Z,7.00
2022-08-23T18:29:14.640Z,5.00
2022-08-23T18:31:44.218Z,4.45
2022-08-23T18:36:39.201Z,6.55
2022-08-23T18:39:08.248Z,3.65
2022-08-23T18:41:35.651Z,3.50
2022-08-23T18:44:05.741Z,3.60
2022-08-23T18:46:39.066Z,3.45
2022-08-23T18:49:07.407Z,3.53
2022-08-23T18:51:34.485Z,4.38
2022-08-23T18:54:01.982Z,4.63
2022-08-23T18:56:29.032Z,3.90
2022-08-23T18:58:56.129Z,3.97
2022-08-23T19:01:35.918Z,3.72
2022-08-23T19:04:05.054Z,3.58
2022-08-23T19:06:32.380Z,3.30
2022-08-23T19:09:01.117Z,3.75
2022-08-23T19:11:29.479Z,6.07
2022-08-23T19:13:59.192Z,3.60
2022-08-23T19:16:26.872Z,3.55
2022-08-23T19:18:55.204Z,3.45
2022-08-23T19:21:24.516Z,3.83
2022-08-23T19:23:54.316Z,4.30
2022-08-23T19:26:31.770Z,4.32
2022-08-23T19:29:00.244Z,3.90
2022-08-23T19:31:33.524Z,4.30
2022-08-23T19:34:03.665Z,10.65
2022-08-23T19:36:45.661Z,4.28
2022-08-23T19:39:14.373Z,4.47
2022-08-23T19:41:42.002Z,4.40
2022-08-23T19:44:09.623Z,4.38
2022-08-23T19:46:42.026Z,4.47
2022-08-23T19:49:10.527Z,3.90
2022-08-23T19:51:38.491Z,4.68
2022-08-23T19:54:10.877Z,4.53
2022-08-23T19:56:51.918Z,5.00
2022-08-23T19:59:25.487Z,4.28
2022-08-23T20:01:53.742Z,4.93
2022-08-23T20:04:22.288Z,4.88
2022-08-23T20:06:49.483Z,4.10
2022-08-23T20:09:17.743Z,4.95
2022-08-23T20:11:45.210Z,5.22
2022-08-23T20:14:12.493Z,4.00
2022-08-23T20:16:41.622Z,4.20
2022-08-23T20:19:10.113Z,4.38
2022-08-23T20:21:38.753Z,4.00
2022-08-23T20:24:07.900Z,4.57
2022-08-23T20:26:41.219Z,4.80
2022-08-23T20:29:10.932Z,5.18
2022-08-23T20:31:46.446Z,4.53
2022-08-23T20:34:13.796Z,4.82
2022-08-23T20:36:40.757Z,5.10
2022-08-23T20:39:08.058Z,4.38
2022-08-23T20:41:37.582Z,5.32
2022-08-23T20:44:05.769Z,4.43
2022-08-23T20:46:33.371Z,4.78
2022-08-23T20:49:00.463Z,4.60
2022-08-23T20:51:28.846Z,4.68
2022-08-23T20:53:57.001Z,4.28
2022-08-23T20:56:25.332Z,4.63
2022-08-23T20:58:52.737Z,4.90
2022-08-23T21:01:20.020Z,4.47
2022-08-23T21:03:47.092Z,4.90
2022-08-23T21:06:19.945Z,4.65
2022-08-23T21:08:53.864Z,4.80
2022-08-23T21:11:22.792Z,4.57
2022-08-23T21:13:49.912Z,4.17
2022-08-23T21:16:18.176Z,4.45
2022-08-23T21:18:45.607Z,4.20
2022-08-23T21:21:13.645Z,4.85
2022-08-23T21:23:40.861Z,4.55
2022-08-23T21:26:09.103Z,4.30
2022-08-23T21:28:36.624Z,4.55
2022-08-23T21:31:09.016Z,4.25
2022-08-23T21:33:39.975Z,3.60
2022-08-23T21:36:11.535Z,3.97
2022-08-23T21:38:39.582Z,4.25
2022-08-23T21:41:11.056Z,4.45
2022-08-23T21:43:39.057Z,4.20
2022-08-23T21:46:07.407Z,4.30
2022-08-23T21:48:34.660Z,3.78
2022-08-23T21:51:01.806Z,6.15
2022-08-23T21:53:28.968Z,3.30
2022-08-23T21:55:55.950Z,3.13
2022-08-23T21:58:25.950Z,3.65
2022-08-23T22:00:53.007Z,3.00
2022-08-23T22:03:20.187Z,3.58
2022-08-23T22:05:48.105Z,3.42
2022-08-23T22:08:17.124Z,3.75
2022-08-23T22:10:57.269Z,3.75
2022-08-23T22:13:28.316Z,3.88
2022-08-23T22:15:55.480Z,3.45
2022-08-23T22:18:22.589Z,3.90
2022-08-23T22:20:49.656Z,3.88
2022-08-23T22:23:17.421Z,3.90
2022-08-23T22:25:44.623Z,3.40
2022-08-23T22:28:11.732Z,4.07
2022-08-23T22:30:38.912Z,4.32
2022-08-23T22:33:06.203Z,5.05
2022-08-23T22:35:35.258Z,4.00
2022-08-23T22:38:13.689Z,5.30
2022-08-23T22:40:51.860Z,4.10
2022-08-23T22:43:20.694Z,3.40
2022-08-23T22:45:58.786Z,3.23
2022-08-23T22:48:29.827Z,3.80
2022-08-23T22:51:06.547Z,3.60
2022-08-23T22:53:35.896Z,3.50
2022-08-23T22:56:04.216Z,4.18
2022-08-23T22:58:31.970Z,4.18
2022-08-23T23:00:59.412Z,3.70
2022-08-23T23:03:31.860Z,4.43
2022-08-23T23:05:58.836Z,4.03
2022-08-23T23:08:27.775Z,3.92
2022-08-23T23:11:05.763Z,3.75
2022-08-23T23:13:34.220Z,3.10
2022-08-23T23:16:11.536Z,3.72
2022-08-23T23:18:40.384Z,4.03
2022-08-23T23:21:08.566Z,4.00
2022-08-23T23:23:37.510Z,3.35
2022-08-23T23:26:08.195Z,4.20
2022-08-23T23:28:35.375Z,6.05
2022-08-23T23:31:03.518Z,3.90
2022-08-23T23:33:30.566Z,3.65
2022-08-23T23:35:57.577Z,4.00
2022-08-23T23:38:27.901Z,4.30
2022-08-23T23:40:55.059Z,3.95
2022-08-23T23:43:22.027Z,3.83
2022-08-23T23:45:49.054Z,3.65
2022-08-23T23:48:16.588Z,4.43
2022-08-23T23:50:45.028Z,4.60
2022-08-23T23:53:14.590Z,3.63
2022-08-23T23:55:42.511Z,3.58
2022-08-23T23:58:10.317Z,4.15
